Time;durP1;ratioP1;P1;durP2;ratioP2;P2;SDS_P1;SDS_P2;PMS_P1;PMS_P2;Temp;Humidity;BMP_temperature;BMP_pressure;BME280_temperature;BME280_humidity;BME280_pressure;Samples;Min_cycle;Max_cycle;Signal;HPM_P1;HPM_P2
2022/11/25 00:00:23;;;;;;;33.60;21.88;;;5.30;99.90;;;5.53;100.00;101060.03;4898336;29;20218;-76
2022/11/25 00:02:52;;;;;;;50.67;22.50;;;5.40;99.90;;;5.56;100.00;101065.09;4912649;29;20249;-76
2022/11/25 00:05:21;;;;;;;41.03;23.67;;;5.40;99.90;;;5.58;99.69;101066.59;4917227;29;20272;-76
2022/11/25 00:07:51;;;;;;;45.20;24.15;;;5.50;99.90;;;5.49;99.15;101066.75;4915586;29;20200;-76
2022/11/25 00:10:20;;;;;;;44.45;22.58;;;5.40;99.90;;;5.50;99.45;101065.75;4917548;29;20504;-76
2022/11/25 00:12:49;;;;;;;41.47;25.00;;;5.50;99.90;;;5.55;99.23;101069.63;4918823;29;20725;-75
2022/11/25 00:15:18;;;;;;;37.72;24.77;;;5.50;99.90;;;5.32;99.25;101060.53;4921921;29;20753;-75
2022/11/25 00:17:46;;;;;;;42.72;24.25;;;5.40;99.90;;;5.44;99.61;101056.50;4935535;29;20257;-76
2022/11/25 00:20:15;;;;;;;39.97;22.10;;;5.40;99.90;;;5.76;99.00;101055.69;4933991;29;20285;-76
2022/11/25 00:22:44;;;;;;;44.75;25.00;;;5.60;99.90;;;5.53;98.67;101057.38;4932181;29;20201;-75
2022/11/25 00:25:15;;;;;;;39.45;25.50;;;5.40;99.90;;;5.34;99.53;101061.19;4929939;29;20189;-76
2022/11/25 00:27:43;;;;;;;46.67;24.50;;;5.30;99.90;;;5.48;99.29;101055.19;4928072;29;20182;-75
2022/11/25 00:30:13;;;;;;;39.00;21.70;;;5.40;99.90;;;5.52;98.64;101058.38;4921751;29;20221;-76
2022/11/25 00:32:44;;;;;;;40.17;22.70;;;5.50;99.90;;;5.50;98.89;101055.03;4921320;29;20228;-75
2022/11/25 00:35:13;;;;;;;40.03;23.83;;;5.40;99.90;;;5.36;99.30;101063.72;4922408;29;20646;-75
2022/11/25 00:37:42;;;;;;;37.05;22.88;;;5.40;99.90;;;5.23;99.99;101058.81;4919956;29;20232;-75
2022/11/25 00:40:14;;;;;;;34.22;20.92;;;5.30;99.90;;;5.27;100.00;101070.91;4901159;29;20569;-77
2022/11/25 00:45:32;;;;;;;29.40;19.95;;;5.30;99.90;;;5.33;99.92;101064.88;4917280;29;20199;-76
2022/11/25 00:48:02;;;;;;;36.17;21.33;;;5.30;99.90;;;5.52;99.71;101069.94;4916203;29;20209;-75
2022/11/25 00:50:31;;;;;;;44.40;23.90;;;5.40;99.90;;;5.46;99.21;101073.31;4916159;29;20737;-75
2022/11/25 00:53:00;;;;;;;35.45;21.73;;;5.40;99.90;;;5.51;98.42;101075.50;4903943;29;20249;-76
2022/11/25 00:56:11;;;;;;;57.67;23.60;;;5.50;99.90;;;5.42;99.44;101073.81;4896826;29;20285;-79
2022/11/25 00:58:20;;;;;;;40.55;22.77;;;5.40;99.90;;;5.50;98.65;101076.50;4910867;29;20221;-77
2022/11/25 01:05:39;;;;;;;33.08;19.92;;;5.40;99.90;;;5.16;100.00;101069.38;4907076;29;20192;-77
2022/11/25 01:08:08;;;;;;;34.55;22.27;;;5.20;99.90;;;5.19;100.00;101065.50;4917179;29;20270;-77
2022/11/25 01:10:40;;;;;;;43.42;23.13;;;5.20;99.90;;;5.18;100.00;101066.53;4916868;29;20710;-76
2022/11/25 01:13:09;;;;;;;38.22;22.15;;;5.20;99.90;;;5.44;100.00;101069.09;4914070;29;20198;-76
2022/11/25 01:15:38;;;;;;;36.92;22.38;;;5.30;99.90;;;5.36;99.92;101069.94;4898454;29;20198;-77
2022/11/25 01:18:06;;;;;;;33.45;20.55;;;5.30;99.90;;;5.47;99.95;101072.28;4897808;29;20711;-76
2022/11/25 01:20:35;;;;;;;41.13;23.75;;;5.40;99.90;;;5.58;99.15;101069.28;4899143;29;20248;-76
2022/11/25 01:23:04;;;;;;;41.92;22.95;;;5.40;99.90;;;5.31;98.84;101076.78;4900843;29;20213;-76
2022/11/25 01:25:37;;;;;;;44.05;22.80;;;5.30;99.90;;;5.28;99.72;101072.56;4916774;29;20689;-76
2022/11/25 01:28:07;;;;;;;33.47;21.58;;;5.20;99.90;;;5.25;100.00;101072.91;4917212;29;20273;-77
2022/11/25 01:30:36;;;;;;;39.72;19.23;;;5.20;99.90;;;5.32;100.00;101067.75;4910994;29;20300;-76
2022/11/25 01:33:09;;;;;;;42.80;18.55;;;5.30;99.90;;;5.38;99.72;101065.22;4907274;29;20209;-77
2022/11/25 01:35:38;;;;;;;36.75;21.05;;;5.30;99.90;;;5.25;99.79;101070.22;4919039;29;20652;-77
2022/11/25 01:38:07;;;;;;;42.40;21.00;;;5.20;99.90;;;5.32;100.00;101057.84;4920035;29;20189;-77
2022/11/25 01:40:36;;;;;;;40.33;20.33;;;5.20;99.90;;;5.24;99.98;101057.81;4920213;29;20232;-77
2022/11/25 01:43:14;;;;;;;40.92;19.85;;;5.20;99.90;;;5.11;100.00;101055.59;4920117;29;20190;-77
2022/11/25 01:45:43;;;;;;;30.00;18.35;;;5.10;99.90;;;5.21;100.00;101060.81;4919646;29;20197;-77
2022/11/25 01:48:20;;;;;;;36.60;23.13;;;5.20;99.90;;;5.19;100.00;101058.28;4918501;29;20212;-77
2022/11/25 01:50:51;;;;;;;36.30;20.10;;;5.10;99.90;;;5.10;100.00;101061.97;4919824;29;20228;-77
2022/11/25 01:53:22;;;;;;;34.33;20.20;;;5.10;99.90;;;5.31;100.00;101049.94;4899544;29;20671;-77
2022/11/25 01:56:00;;;;;;;39.80;21.27;;;5.20;99.90;;;5.44;100.00;101051.16;4918563;29;20288;-78
2022/11/25 01:58:36;;;;;;;37.83;20.27;;;5.30;99.90;;;5.57;100.00;101051.50;4921096;29;20264;-78
2022/11/25 02:01:05;;;;;;;33.47;21.45;;;5.40;99.90;;;5.72;99.15;101042.78;4921071;29;20232;-77
2022/11/25 02:03:40;;;;;;;36.45;23.60;;;5.50;99.90;;;5.46;99.54;101049.16;4913313;29;20209;-76
2022/11/25 02:06:19;;;;;;;36.95;22.73;;;5.40;99.90;;;5.54;99.55;101041.09;4918489;29;20252;-78
2022/11/25 02:08:53;;;;;;;39.17;19.23;;;5.40;99.90;;;5.40;99.49;101039.06;4920764;29;20690;-77
2022/11/25 02:11:27;;;;;;;34.47;19.20;;;5.40;99.90;;;5.60;100.00;101037.75;4906319;29;20666;-76
2022/11/25 02:13:59;;;;;;;33.95;18.98;;;5.50;99.90;;;5.57;99.74;101030.00;4900462;29;20275;-78
2022/11/25 02:16:28;;;;;;;36.28;20.60;;;5.50;99.90;;;5.59;99.99;101025.34;4913270;29;20200;-78
2022/11/25 02:18:57;;;;;;;36.72;18.85;;;5.50;99.90;;;5.64;99.66;101025.69;4919383;29;20275;-77
2022/11/25 02:21:50;;;;;;;29.63;19.13;;;5.50;99.90;;;5.60;99.47;101024.34;4906203;29;20600;-78
2022/11/25 02:24:29;;;;;;;31.88;19.15;;;5.50;99.90;;;5.52;99.84;101029.69;4909790;29;20253;-77
2022/11/25 02:27:00;;;;;;;36.03;19.27;;;5.50;99.90;;;5.32;100.00;101030.16;4919033;29;20244;-77
2022/11/25 02:29:30;;;;;;;33.55;17.73;;;5.40;99.90;;;5.31;100.00;101026.66;4902384;29;20619;-77
2022/11/25 02:31:59;;;;;;;43.63;22.55;;;5.30;99.90;;;5.30;100.00;101030.31;4913009;29;20411;-77
2022/11/25 02:34:27;;;;;;;31.67;19.73;;;5.30;99.90;;;5.31;100.00;101033.84;4914565;29;20202;-76
2022/11/25 02:36:56;;;;;;;39.80;19.52;;;5.30;99.90;;;5.24;100.00;101022.94;4909366;29;20193;-76
2022/11/25 02:39:25;;;;;;;35.38;21.08;;;5.30;99.90;;;5.31;100.00;101023.13;4919753;29;20237;-76
2022/11/25 02:42:00;;;;;;;33.42;18.13;;;5.30;99.90;;;5.29;100.00;101025.97;4905575;29;20230;-78
2022/11/25 02:44:28;;;;;;;35.83;18.25;;;5.30;99.90;;;5.27;100.00;101025.31;4902353;29;20196;-76
2022/11/25 02:46:57;;;;;;;41.58;19.85;;;5.30;99.90;;;5.31;100.00;101023.97;4917607;29;20205;-76
2022/11/25 02:49:26;;;;;;;32.08;21.05;;;5.30;99.90;;;5.40;100.00;101028.34;4920790;29;20245;-76
2022/11/25 02:51:55;;;;;;;34.03;20.45;;;5.30;99.90;;;5.42;100.00;101036.22;4907830;29;20234;-76
2022/11/25 02:54:24;;;;;;;34.47;18.25;;;5.40;99.90;;;5.34;100.00;101028.97;4898779;29;20226;-77
2022/11/25 02:56:52;;;;;;;33.08;18.17;;;5.40;99.90;;;5.22;100.00;101046.41;4899186;29;20571;-77
2022/11/25 02:59:22;;;;;;;37.83;19.13;;;5.40;99.90;;;5.28;100.00;101045.72;4899208;29;20202;-77
2022/11/25 03:01:51;;;;;;;32.40;19.92;;;5.30;99.90;;;5.11;100.00;101044.03;4898731;29;20282;-77
2022/11/25 03:04:20;;;;;;;33.22;19.10;;;5.20;99.90;;;5.07;100.00;101048.03;4909112;29;20300;-77
2022/11/25 03:06:48;;;;;;;35.83;18.38;;;5.20;99.90;;;5.23;100.00;101048.91;4918798;29;20677;-76
2022/11/25 03:09:17;;;;;;;39.05;21.40;;;5.20;99.90;;;5.31;100.00;101053.47;4901107;29;20441;-76
2022/11/25 03:14:32;;;;;;;38.65;20.55;;;5.40;99.90;;;5.57;100.00;101066.75;4904127;29;20585;-76
2022/11/25 03:17:02;;;;;;;45.28;22.65;;;5.50;99.90;;;5.58;99.63;101071.13;4917986;29;20186;-77
2022/11/25 03:19:30;;;;;;;39.53;22.15;;;5.60;99.90;;;5.43;99.96;101065.56;4910311;29;20287;-76
2022/11/25 03:21:59;;;;;;;39.33;18.88;;;5.50;99.90;;;5.37;100.00;101071.63;4916641;29;20257;-76
2022/11/25 03:24:28;;;;;;;33.72;17.98;;;5.40;99.90;;;5.47;100.00;101072.28;4910347;29;20704;-77
2022/11/25 03:26:56;;;;;;;35.85;18.70;;;5.50;99.90;;;5.40;100.00;101070.44;4910097;29;20241;-76
2022/11/25 03:29:25;;;;;;;30.58;17.50;;;5.40;99.90;;;5.28;100.00;101072.56;4913523;29;20209;-77
2022/11/25 03:31:55;;;;;;;32.60;16.73;;;5.30;99.90;;;5.48;100.00;101079.34;4897618;29;20226;-77
2022/11/25 03:34:24;;;;;;;29.50;16.73;;;5.50;99.90;;;5.36;100.00;101055.66;4904662;29;20205;-77
2022/11/25 03:36:52;;;;;;;31.17;18.60;;;5.40;99.90;;;5.31;100.00;101055.31;4903561;29;20202;-76
2022/11/25 03:39:25;;;;;;;29.15;15.32;;;5.30;99.90;;;5.46;100.00;101057.19;4916423;29;20205;-76
2022/11/25 03:41:53;;;;;;;36.53;19.58;;;5.40;99.90;;;5.20;100.00;101065.34;4916568;29;20236;-75
2022/11/25 03:44:23;;;;;;;31.20;17.67;;;5.30;99.90;;;5.31;100.00;101064.22;4972386;23;20192;-74
2022/11/25 03:46:55;;;;;;;42.85;18.88;;;5.30;99.90;;;5.33;100.00;101064.88;4936183;29;20192;-73
2022/11/25 03:49:25;;;;;;;35.60;18.85;;;5.30;99.90;;;5.42;100.00;101052.34;4936058;29;20691;-75
2022/11/25 03:51:58;;;;;;;28.73;18.30;;;5.40;99.90;;;5.40;100.00;101054.34;4936569;29;20276;-75
2022/11/25 03:54:28;;;;;;;33.35;17.25;;;5.40;99.90;;;5.48;100.00;101063.22;4938269;29;20242;-73
2022/11/25 03:57:14;;;;;;;30.45;18.25;;;5.40;99.90;;;5.59;100.00;101065.59;4926475;29;20694;-75
2022/11/25 03:59:45;;;;;;;34.45;18.70;;;5.50;99.90;;;5.50;100.00;101055.88;4911032;29;20213;-75
2022/11/25 04:02:17;;;;;;;30.25;17.13;;;5.50;99.90;;;5.68;100.00;101051.19;4917978;29;20205;-75
2022/11/25 04:05:40;;;;;;;35.75;18.60;;;5.50;99.90;;;5.62;100.00;101064.41;4921919;29;20650;-74
2022/11/25 04:08:09;;;;;;;32.15;17.67;;;5.60;99.90;;;5.61;100.00;101063.59;4917625;29;20617;-74
2022/11/25 04:10:40;;;;;;;31.02;17.38;;;5.60;99.90;;;5.46;100.00;101067.94;4916058;29;20662;-73
2022/11/25 04:13:11;;;;;;;25.60;17.70;;;5.50;99.90;;;5.52;100.00;101064.56;4906727;29;20297;-73
2022/11/25 04:15:49;;;;;;;42.35;19.27;;;5.50;99.90;;;5.53;100.00;101066.25;4910217;29;20539;-73
2022/11/25 04:18:23;;;;;;;32.60;17.70;;;5.50;99.90;;;5.64;100.00;101068.63;4904789;29;20350;-76
2022/11/25 04:20:57;;;;;;;28.45;16.27;;;5.50;99.90;;;5.61;100.00;101060.91;4924534;29;20220;-74
2022/11/25 04:23:30;;;;;;;32.42;16.40;;;5.50;99.90;;;5.71;100.00;101073.34;4933502;29;20217;-74
2022/11/25 04:26:08;;;;;;;32.05;17.27;;;5.60;99.90;;;5.88;100.00;101069.69;4915824;29;20217;-74
2022/11/25 04:28:41;;;;;;;25.63;16.60;;;5.80;99.90;;;5.64;100.00;101079.38;4915699;29;20613;-72
2022/11/25 04:31:11;;;;;;;26.88;18.30;;;5.70;99.90;;;5.57;100.00;101077.50;4916637;29;20216;-75
2022/11/25 04:33:45;;;;;;;27.38;17.45;;;5.70;99.90;;;5.63;100.00;101075.00;4912694;29;20202;-73
2022/11/25 04:36:21;;;;;;;32.42;18.55;;;5.60;99.90;;;5.64;100.00;101086.59;4927434;29;20204;-74
2022/11/25 04:38:56;;;;;;;27.25;15.73;;;5.60;99.90;;;5.65;100.00;101081.06;4918389;29;20251;-74
2022/11/25 04:41:25;;;;;;;27.67;15.88;;;5.70;99.90;;;5.55;100.00;101091.09;4916318;29;20217;-74
2022/11/25 04:43:54;;;;;;;36.35;17.05;;;5.50;99.90;;;5.72;100.00;101083.06;4921443;29;20607;-74
2022/11/25 04:46:39;;;;;;;31.80;17.23;;;5.60;99.90;;;5.85;100.00;101081.59;4916940;29;20208;-75
2022/11/25 04:49:12;;;;;;;27.45;15.48;;;5.70;99.90;;;5.85;100.00;101080.75;4917895;29;20209;-73
2022/11/25 04:51:41;;;;;;;32.17;18.50;;;5.80;99.90;;;5.87;100.00;101076.91;4927246;29;20264;-73
2022/11/25 04:54:11;;;;;;;27.50;16.05;;;5.80;99.90;;;5.89;100.00;101077.59;4920115;29;20624;-76
2022/11/25 04:56:46;;;;;;;27.15;15.90;;;5.80;99.90;;;5.92;100.00;101076.41;4918192;29;20571;-75
2022/11/25 05:02:02;;;;;;;37.00;18.63;;;5.80;99.90;;;5.93;100.00;101081.59;4914333;29;20229;-74
2022/11/25 05:04:39;;;;;;;33.15;14.82;;;5.90;99.90;;;5.97;100.00;101080.25;4929259;29;20311;-75
2022/11/25 05:07:10;;;;;;;33.35;17.35;;;5.90;99.90;;;5.89;100.00;101074.06;4913750;29;20202;-76
2022/11/25 05:09:41;;;;;;;35.97;18.63;;;5.90;99.90;;;5.90;100.00;101079.28;4915899;29;20253;-75
2022/11/25 05:12:22;;;;;;;30.33;18.42;;;5.80;99.90;;;5.80;100.00;101088.47;4933594;29;20201;-73
2022/11/25 05:14:51;;;;;;;26.90;17.30;;;5.80;99.90;;;6.02;100.00;101082.44;4921615;29;20201;-75
2022/11/25 05:17:25;;;;;;;26.85;16.27;;;5.90;99.90;;;5.83;100.00;101077.38;4931035;29;20665;-74
2022/11/25 05:19:58;;;;;;;35.72;18.60;;;5.80;99.90;;;5.80;100.00;101081.25;4935915;29;20653;-75
2022/11/25 05:22:32;;;;;;;27.63;16.45;;;5.80;99.90;;;5.93;100.00;101089.66;4916149;29;20317;-75
2022/11/25 05:25:04;;;;;;;27.25;16.55;;;5.90;99.90;;;5.96;100.00;101088.47;4918746;29;20318;-74
2022/11/25 05:27:37;;;;;;;28.95;17.60;;;5.90;99.90;;;6.12;100.00;101091.19;4920757;29;20585;-73
2022/11/25 05:30:11;;;;;;;27.08;15.73;;;5.90;99.90;;;5.99;99.98;101088.16;4919166;29;20202;-74
2022/11/25 05:32:40;;;;;;;34.78;18.45;;;5.90;99.90;;;5.98;100.00;101094.53;4915910;29;20535;-74
2022/11/25 05:35:13;;;;;;;42.47;17.15;;;5.90;99.90;;;6.01;100.00;101097.72;4937156;29;20264;-72
2022/11/25 05:37:44;;;;;;;25.42;15.75;;;6.00;99.90;;;6.10;99.30;101103.94;4920112;29;20554;-73
2022/11/25 05:40:17;;;;;;;29.80;17.42;;;6.00;99.90;;;6.00;99.74;101111.34;4919721;29;20198;-74
2022/11/25 05:43:01;;;;;;;28.88;15.30;;;6.00;99.90;;;5.90;100.00;101105.28;4936820;29;20193;-75
2022/11/25 05:45:33;;;;;;;28.17;15.32;;;5.90;99.90;;;6.09;99.91;101104.97;4930875;29;20237;-75
2022/11/25 05:48:04;;;;;;;31.17;18.80;;;6.00;99.90;;;6.00;100.00;101104.09;4916702;29;20262;-74
2022/11/25 05:50:36;;;;;;;30.27;17.63;;;5.90;99.90;;;6.00;99.98;101100.59;4911391;29;20247;-74
2022/11/25 05:53:19;;;;;;;30.83;17.27;;;5.90;99.90;;;5.96;100.00;101094.69;4921613;29;20208;-74
2022/11/25 05:55:56;;;;;;;41.38;20.08;;;5.90;99.90;;;5.93;100.00;101110.31;4949167;29;20235;-75
2022/11/25 05:58:53;;;;;;;32.38;17.88;;;6.00;99.90;;;5.68;100.00;101102.19;4931803;28;20567;-74
2022/11/25 06:01:27;;;;;;;24.23;15.48;;;5.70;99.90;;;5.86;100.00;101103.88;4924236;29;20216;-74
2022/11/25 06:04:00;;;;;;;29.27;16.27;;;5.80;99.90;;;5.76;100.00;101108.59;4931537;29;20198;-74
2022/11/25 06:06:32;;;;;;;26.35;16.08;;;5.70;99.90;;;5.96;100.00;101104.59;4918054;29;20253;-73
2022/11/25 06:09:01;;;;;;;29.83;17.60;;;5.80;99.90;;;5.95;100.00;101108.31;4919583;29;20709;-75
2022/11/25 06:11:31;;;;;;;24.67;17.58;;;5.80;99.90;;;5.87;100.00;101105.59;4924742;29;20189;-75
2022/11/25 06:14:00;;;;;;;29.88;17.25;;;5.80;99.90;;;5.75;100.00;101109.59;4905675;29;20210;-74
2022/11/25 06:16:29;;;;;;;41.67;19.58;;;5.70;99.90;;;5.74;100.00;101105.22;4927435;29;20212;-74
2022/11/25 06:19:17;;;;;;;36.28;19.02;;;5.70;99.90;;;5.53;100.00;101111.03;4947448;29;20192;-75
2022/11/25 06:21:48;;;;;;;36.13;18.17;;;5.60;99.90;;;5.53;100.00;101106.53;4944514;29;20247;-73
2022/11/25 06:24:18;;;;;;;32.92;18.52;;;5.50;99.90;;;5.43;100.00;101100.47;4945212;29;20241;-76
2022/11/25 06:26:51;;;;;;;33.38;19.55;;;5.50;99.90;;;5.20;100.00;101099.38;4932137;29;20201;-75
2022/11/25 06:29:21;;;;;;;35.50;18.98;;;5.30;99.90;;;4.89;100.00;101101.75;4935397;29;20206;-73
2022/11/25 06:31:52;;;;;;;34.67;19.23;;;5.10;99.90;;;4.81;100.00;101094.53;4947384;29;20188;-73
2022/11/25 06:34:41;;;;;;;40.40;19.15;;;5.00;99.90;;;4.68;100.00;101091.47;4918837;29;20221;-74
2022/11/25 06:37:33;;;;;;;29.02;17.40;;;4.90;99.90;;;4.46;100.00;101089.28;4918358;29;20674;-74
2022/11/25 06:40:02;;;;;;;47.67;20.58;;;4.70;99.90;;;4.41;100.00;101088.91;4935461;29;20205;-74
2022/11/25 06:42:31;;;;;;;35.40;20.42;;;4.70;99.90;;;4.30;100.00;101102.59;4910543;29;20206;-74
2022/11/25 06:45:01;;;;;;;32.53;17.70;;;4.60;99.90;;;4.18;100.00;101107.34;4932182;29;20244;-74
2022/11/25 06:47:30;;;;;;;38.70;19.92;;;4.50;99.90;;;4.01;100.00;101113.59;4912480;29;20666;-73
2022/11/25 06:50:02;;;;;;;44.47;18.52;;;4.30;99.90;;;4.00;100.00;101111.91;4918189;29;20269;-74
2022/11/25 06:52:33;;;;;;;37.78;18.73;;;4.30;99.90;;;3.99;100.00;101117.41;4918018;29;20237;-76
2022/11/25 06:55:03;;;;;;;26.75;17.35;;;4.30;99.90;;;3.83;100.00;101121.59;4931625;29;20237;-75
2022/11/25 06:57:32;;;;;;;31.30;18.33;;;4.10;99.90;;;3.77;100.00;101119.56;4917390;29;20240;-74
2022/11/25 07:00:01;;;;;;;31.10;17.80;;;4.10;99.90;;;3.76;100.00;101122.38;4922827;29;20197;-75
2022/11/25 07:02:31;;;;;;;34.17;18.48;;;4.00;99.90;;;3.90;100.00;101125.38;4926485;29;20209;-74
2022/11/25 07:05:10;;;;;;;42.97;19.15;;;4.10;99.90;;;3.92;100.00;101126.03;4923854;29;20225;-74
2022/11/25 07:07:45;;;;;;;46.67;21.65;;;4.10;99.90;;;3.83;100.00;101129.63;4931128;29;20674;-73
2022/11/25 07:10:14;;;;;;;37.92;17.70;;;4.10;99.90;;;3.82;100.00;101130.66;4936550;29;20200;-73
2022/11/25 07:12:45;;;;;;;34.10;20.30;;;4.00;99.90;;;3.81;100.00;101133.47;4928712;29;20205;-75
2022/11/25 07:15:19;;;;;;;36.17;20.10;;;4.10;99.90;;;3.81;100.00;101139.69;4924670;29;20315;-74
2022/11/25 07:17:48;;;;;;;37.60;18.58;;;4.00;99.90;;;3.99;100.00;101136.16;4918552;29;20268;-74
2022/11/25 07:20:18;;;;;;;41.88;20.02;;;4.10;99.90;;;4.02;100.00;101144.69;4923088;29;20201;-75
2022/11/25 07:22:51;;;;;;;35.90;20.20;;;4.10;99.90;;;4.08;100.00;101156.66;4918964;29;20224;-74
2022/11/25 07:25:21;;;;;;;36.05;20.17;;;4.20;99.90;;;4.03;100.00;101151.75;4919535;29;20233;-73
2022/11/25 07:27:57;;;;;;;41.47;21.08;;;4.20;99.90;;;4.12;100.00;101160.69;4909781;29;20225;-76
2022/11/25 07:30:27;;;;;;;43.50;20.20;;;4.20;99.90;;;4.21;100.00;101157.13;4920592;29;20709;-73
2022/11/25 07:33:16;;;;;;;43.85;23.85;;;4.30;99.90;;;4.31;100.00;101168.56;4918728;29;20262;-75
2022/11/25 07:35:46;;;;;;;41.05;22.60;;;4.40;99.90;;;4.65;100.00;101182.88;4915559;29;20227;-75
2022/11/25 07:38:19;;;;;;;43.95;20.48;;;4.60;99.90;;;4.56;100.00;101177.63;4930465;29;20228;-74
2022/11/25 07:40:49;;;;;;;35.20;19.33;;;4.60;99.90;;;4.63;100.00;101179.53;4925680;29;20543;-75
2022/11/25 07:43:18;;;;;;;47.65;21.45;;;4.70;99.90;;;4.66;100.00;101179.22;4907683;29;20297;-76
2022/11/25 07:45:48;;;;;;;48.33;21.50;;;4.60;99.90;;;4.76;100.00;101185.31;4917829;29;20308;-75
2022/11/25 07:48:18;;;;;;;39.90;20.70;;;4.70;99.90;;;4.86;100.00;101182.53;4925840;29;20198;-73
2022/11/25 07:50:48;;;;;;;35.60;19.63;;;4.80;99.90;;;4.99;100.00;101172.22;4918274;29;20201;-73
2022/11/25 07:53:19;;;;;;;51.78;22.65;;;4.90;99.90;;;4.97;100.00;101162.66;4928192;29;20198;-75
2022/11/25 07:55:49;;;;;;;39.00;21.40;;;4.90;99.90;;;4.99;100.00;101166.84;4917295;29;20217;-75
2022/11/25 07:58:19;;;;;;;37.80;21.58;;;5.00;99.90;;;5.06;100.00;101165.22;4917869;29;20225;-73
2022/11/25 08:00:48;;;;;;;35.03;20.67;;;5.00;99.90;;;5.07;100.00;101164.22;4926533;29;20256;-74
2022/11/25 08:03:18;;;;;;;53.20;21.95;;;5.10;99.90;;;5.17;100.00;101162.28;4920506;29;20568;-73
2022/11/25 08:05:47;;;;;;;46.17;21.70;;;5.10;99.90;;;5.12;100.00;101158.38;4916422;29;20225;-74
2022/11/25 08:08:18;;;;;;;40.13;21.67;;;5.10;99.90;;;5.11;100.00;101160.22;4919259;29;20204;-74
2022/11/25 08:10:49;;;;;;;49.83;21.33;;;5.10;99.90;;;5.05;100.00;101158.16;4926305;29;20209;-73
2022/11/25 08:13:18;;;;;;;33.22;20.77;;;5.10;99.90;;;5.17;100.00;101166.78;4916583;29;20272;-73
2022/11/25 08:15:48;;;;;;;40.50;20.83;;;5.10;99.90;;;5.21;100.00;101166.31;4921037;29;20224;-75
2022/11/25 08:18:18;;;;;;;50.15;22.25;;;5.20;99.90;;;5.39;100.00;101170.72;4923480;29;20257;-76
2022/11/25 08:20:47;;;;;;;42.17;22.83;;;5.30;99.90;;;5.53;100.00;101170.09;4927883;29;20189;-74
2022/11/25 08:23:19;;;;;;;49.58;21.95;;;5.40;99.90;;;5.56;100.00;101173.31;4920014;29;20244;-74
2022/11/25 08:25:48;;;;;;;41.25;20.75;;;;;;;5.51;100.00;101181.03;4921354;29;20248;-75
2022/11/25 08:28:18;;;;;;;50.92;21.92;;;;;;;5.56;100.00;101184.06;4908429;29;20212;-75
2022/11/25 08:30:48;;;;;;;41.08;18.42;;;;;;;5.63;100.00;101179.72;4916123;29;20204;-74
2022/11/25 08:33:18;;;;;;;34.83;20.88;;;;;;;5.66;100.00;101183.94;4917870;29;20221;-74
2022/11/25 08:35:54;;;;;;;44.60;19.90;;;;;;;5.96;100.00;101187.88;4921526;29;20213;-75
2022/11/25 08:38:25;;;;;;;36.92;19.20;;;;;;;6.04;100.00;101183.38;4919259;29;20201;-76
2022/11/25 08:40:54;;;;;;;39.78;21.10;;;;;;;6.12;100.00;101174.47;4923039;29;20193;-74
2022/11/25 08:43:24;;;;;;;38.50;19.77;;;;;;;6.06;100.00;101186.72;4914311;29;20291;-74
2022/11/25 08:45:57;;;;;;;29.80;18.63;;;;;;;6.08;100.00;101190.09;4916659;29;20225;-75
2022/11/25 08:48:26;;;;;;;43.55;19.67;;;;;;;6.02;100.00;101187.22;4916150;29;20229;-75
2022/11/25 08:50:57;;;;;;;48.90;20.95;;;;;;;5.92;100.00;101199.94;4909975;29;20194;-75
2022/11/25 08:53:28;;;;;;;38.42;19.75;;;;;;;5.79;100.00;101188.81;4898520;29;20190;-74
2022/11/25 08:55:57;;;;;;;27.65;15.50;;;;;;;5.79;100.00;101183.44;4921233;29;20268;-74
2022/11/25 08:58:25;;;;;;;42.45;17.63;;;;;;;5.89;100.00;101184.19;4928138;29;20200;-74
2022/11/25 09:00:54;;;;;;;33.88;18.75;;;;;;;5.99;100.00;101190.25;4920081;29;20603;-74
2022/11/25 09:03:23;;;;;;;41.15;20.92;;;;;;;5.81;100.00;101187.63;4917664;29;20435;-75
2022/11/25 09:05:53;;;;;;;38.17;18.23;;;;;;;5.91;100.00;101187.53;4916275;29;20217;-74
2022/11/25 09:08:23;;;;;;;30.45;16.08;;;;;;;6.21;100.00;101194.13;4923464;29;20205;-74
2022/11/25 09:10:53;;;;;;;36.30;18.25;;;;;;;6.21;100.00;101194.13;4903239;29;20201;-75
2022/11/25 09:13:22;;;;;;;34.15;17.13;;;;;;;6.29;100.00;101195.00;4923930;29;20445;-75
2022/11/25 09:15:51;;;;;;;27.88;17.08;;;;;;;6.32;100.00;101204.56;4921616;29;20277;-76
2022/11/25 09:18:24;;;;;;;41.50;18.05;;;;;;;6.25;100.00;101204.38;4908749;29;20206;-75
2022/11/25 09:20:54;;;;;;;32.58;19.15;;;;;;;6.28;100.00;101206.75;4912987;29;20201;-75
2022/11/25 09:23:23;;;;;;;35.72;15.10;;;;;;;6.22;100.00;101207.41;4928511;29;20209;-74
2022/11/25 09:25:55;;;;;;;31.95;17.27;;;;;;;6.25;100.00;101209.75;4916982;29;20221;-74
2022/11/25 09:28:25;;;;;;;35.28;18.77;;;;;;;6.24;100.00;101205.41;4931289;29;20743;-74
2022/11/25 09:30:54;;;;;;;31.05;17.50;;;;;;;6.50;99.23;101211.44;4924185;29;20265;-76
2022/11/25 09:33:23;;;;;;;31.83;17.90;;;;;;;6.49;99.37;101196.31;4914484;29;20194;-74
2022/11/25 09:35:54;;;;;;;42.92;19.90;;;;;;;6.68;98.53;101192.44;4903703;29;20217;-74
2022/11/25 09:38:23;;;;;;;39.22;17.70;;;;;;;6.77;98.40;101198.66;4923530;29;20212;-74
2022/11/25 09:40:58;;;;;;;31.83;18.40;;;;;;;6.65;97.73;101197.31;4923605;29;20197;-76
2022/11/25 09:55:51;;;;;;;37.35;17.58;;;;;;;6.68;97.43;101187.06;4932440;29;20227;-77
2022/11/25 09:58:34;;;;;;;40.97;19.50;;;;;;;6.61;97.22;101190.59;4935732;29;20248;-76
2022/11/25 10:01:06;;;;;;;33.10;18.10;;;;;;;6.34;97.97;101189.94;4937313;29;20281;-75
2022/11/25 10:03:41;;;;;;;39.65;18.63;;;;;;;6.24;99.48;101185.75;4932841;29;20212;-77
2022/11/25 10:06:16;;;;;;;37.30;18.55;;;;;;;6.34;99.62;101183.75;4931301;29;20442;-76
2022/11/25 10:08:49;;;;;;;39.30;18.67;;;;;;;6.33;99.05;101177.53;4932281;29;20200;-77
2022/11/25 10:11:30;;;;;;;37.83;20.33;;;;;;;6.57;98.50;101178.50;4937699;29;20199;-75
2022/11/25 10:14:07;;;;;;;47.33;20.25;;;;;;;6.70;97.42;101178.81;4938032;29;20196;-76
2022/11/25 10:16:45;;;;;;;33.05;18.88;;;;;;;6.82;97.13;101178.31;4945758;29;20271;-76
2022/11/25 10:19:29;;;;;;;36.25;19.38;;;;;;;6.61;96.79;101180.69;4953664;29;20197;-76
2022/11/25 10:21:58;;;;;;;31.42;17.25;;;;;;;6.70;96.37;101178.81;4947272;29;20201;-76
2022/11/25 10:24:27;;;;;;;35.53;16.23;;;;;;;6.86;96.32;101184.19;4946692;29;20215;-73
2022/11/25 10:27:02;;;;;;;31.50;18.73;;;;;;;6.89;96.17;101178.47;4944162;29;20665;-76
2022/11/25 10:29:37;;;;;;;42.05;19.02;;;;;;;6.93;94.74;101187.88;4935573;29;20188;-76
2022/11/25 10:32:20;;;;;;;31.50;16.75;;;;;;;7.01;93.59;101192.41;4936367;29;20193;-76
2022/11/25 10:34:53;;;;;;;29.08;17.33;;;;;;;6.84;93.96;101191.56;4934595;29;20705;-76
2022/11/25 10:37:29;;;;;;;40.22;19.40;;;;;;;6.89;94.33;101183.84;4935495;29;20189;-75
2022/11/25 10:39:58;;;;;;;30.48;16.90;;;;;;;6.80;94.61;101174.09;4936204;29;20196;-76
2022/11/25 10:42:29;;;;;;;36.60;19.48;;;;;;;6.78;95.31;101181.50;4936754;29;20217;-76
2022/11/25 10:44:59;;;;;;;34.90;18.30;;;;;;;6.60;96.50;101181.69;4939068;29;20663;-75
2022/11/25 10:47:37;;;;;;;39.35;20.00;;;;;;;6.78;95.86;101184.19;4918201;29;20212;-77
2022/11/25 10:50:17;;;;;;;41.03;18.13;;;;;;;6.65;96.00;101186.56;4932834;29;20215;-76
2022/11/25 10:52:55;;;;;;;41.15;20.30;;;;;;;6.84;95.25;101180.81;4937017;29;20200;-75
2022/11/25 10:55:27;;;;;;;37.88;20.45;;;;;;;7.03;95.55;101182.28;4935071;29;20775;-76
2022/11/25 10:57:56;;;;;;;35.28;18.95;;;;;;;7.21;93.62;101183.75;4934616;29;20201;-73
2022/11/25 11:00:33;;;;;;;37.35;19.48;;;;;;;7.24;93.40;101188.81;4935377;29;20560;-77
2022/11/25 11:03:16;;;;;;;33.00;19.75;;;;;;;7.38;91.68;101190.75;4935192;29;20208;-75
2022/11/25 11:05:47;;;;;;;35.25;19.17;;;;;;;7.28;91.59;101184.75;4945359;29;20220;-77
2022/11/25 11:08:20;;;;;;;38.20;19.55;;;;;;;7.31;91.09;101200.53;4937072;29;20188;-75